Siletz, OR

5:48 PM PDT on September 30, 2014 (GMT -0700)
Corvallis Municipal | Change Station
CLOSE
Current Station
Airport
Location: Corvallis,
Elevation: 246 ft
Nearby Weather Stations
Active Advisory: Special Statement

Elev 246 ft 44.50 °N, 123.29 °W | Updated 13 minutes ago

Partly Cloudy
Partly Cloudy
66 °F
Feels Like 66 °F
N
12
Wind Variable Wind from WNW

Today
High -- | Low -- °F
--% Chance of Precip.
Yesterday
High -- | Low -- °F
Precip. -- in
7:12 AM 6:57 PM
Waxing Crescent, 41% visible
Pressure 30.16 in
Visibility -9999.0 miles
Clouds Few 3700 ft
Scattered Clouds 4500 ft
Overcast 7500 ft
Dew Point 52 °F
Humidity 60%
Rainfall 0.00 in
Snow Depth 0 in , 0 in , 0 in
UV 0 out of 12
Pollen .60 out of 12
Air Quality Not available.
Flu Activity Not available.
METAR KCVO 010035Z AUTO 30010KT FEW037 SCT045 OVC075 19/11 A3016 RMK AO1

More Conditions Fewer Conditions

Pressure 30.16 in
Visibility -9999.0 miles
Clouds Few 3700 ft
Scattered Clouds 4500 ft
Overcast 7500 ft
Dew Point 52 °F
Humidity 60%
Rainfall 0.00 in
Snow Depth 0 in , 0 in , 0 in
UV 0 out of 12
Pollen .60 out of 12
Air Quality Not available.
Flu Activity Not available.
METAR KCVO 010035Z AUTO 30010KT FEW037 SCT045 OVC075 19/11 A3016 RMK AO1

More Conditions Fewer Conditions

10-Day Weather Forecast

Almanac

Astronomy

Sep. 30, 2014 Rise Set
Actual Time 7:12 AM PDT 6:57 PM PDT
Civil Twilight 6:43 AM PDT 7:26 PM PDT
Nautical Twilight 6:09 AM PDT 8:00 PM PDT
Astronomical Twilight 5:34 AM PDT 8:35 PM PDT
Moon 1:37 PM PDT (9/30) 11:22 PM PDT (9/30)
Length of Visible Light 12h 43m
Length of Day
11h 45m
Tomorrow will be 3m 3s shorter.
Waxing Crescent, 41% of the Moon is Illuminated
Today
Waxing Crescent
Oct 1
First Quarter
Oct 8
Full
Oct 15
Last Quarter
Oct 23
New

Today's Extremes

State Highs State Lows

Community

WunderPhotos

Upload Photos

1,757,801 photos uploaded!

Nearby

Snow Depth

Station Depth Elevation
Mud Ridge 0 in 3800 ft
Strawberry 0 in 5760 ft
Seine Creek 0 in 2000 ft
Clear Lake 1 in 3500 ft
Irish Taylor 0 in 5500 ft

Earthquake Activity

City Distance Mag. Time & Date
No recent earthquake activity has been reported nearby.
Minimum magnitude displayed is 2.5.

Coastal Water Temperatures

Place Temperature
South Beach, OR 60.1 °F
Charleston, OR 57.9 °F

Nearby Weather Stations